Time;durP1;ratioP1;P1;durP2;ratioP2;P2;SDS_P1;SDS_P2;PMS_P1;PMS_P2;Temp;Humidity;BMP_temperature;BMP_pressure;BME280_temperature;BME280_humidity;BME280_pressure;Samples;Min_cycle;Max_cycle;Signal;HPM_P1;HPM_P2
2023/01/29 00:00:10;;;;;;;3.70;3.38;;;;;;;1.15;70.35;100382.44;5093840;28;20110;-67
2023/01/29 00:02:42;;;;;;;2.35;2.13;;;;;;;1.17;70.99;100376.69;5093559;28;20131;-68
2023/01/29 00:05:11;;;;;;;2.13;2.00;;;;;;;1.14;70.50;100369.00;5093719;28;20075;-68
2023/01/29 00:07:56;;;;;;;1.92;1.83;;;;;;;1.21;70.84;100383.59;5094019;28;20040;-68
2023/01/29 00:10:26;;;;;;;3.00;2.80;;;;;;;1.19;70.25;100386.81;5093634;28;20070;-67
2023/01/29 00:12:54;;;;;;;;;;;;;;;1.22;70.27;100386.97;5094380;28;20044;-68
2023/01/29 00:15:23;;;;;;;2.40;1.95;;;;;;;1.21;70.56;100388.63;5093501;28;19920;-67
2023/01/29 00:17:54;;;;;;;1.48;1.38;;;;;;;1.24;70.07;100388.75;5093780;28;20512;-67
2023/01/29 00:20:23;;;;;;;1.85;1.75;;;;;;;1.24;70.10;100392.91;5093883;28;20584;-67
2023/01/29 00:22:51;;;;;;;3.90;2.80;;;;;;;1.23;70.58;100394.56;5093487;28;20562;-67
2023/01/29 00:25:20;;;;;;;3.50;1.10;;;;;;;1.25;69.82;100390.47;5093418;28;20036;-67
2023/01/29 00:27:49;;;;;;;5.68;3.30;;;;;;;1.26;69.76;100399.75;5093510;28;20123;-67
2023/01/29 00:30:19;;;;;;;1.23;1.17;;;;;;;1.27;70.49;100396.44;5093465;28;20097;-67
2023/01/29 00:32:48;;;;;;;0.55;0.55;;;;;;;1.29;69.73;100397.38;5093450;28;20130;-67
2023/01/29 00:35:19;;;;;;;1.97;1.43;;;;;;;1.27;70.46;100401.47;5092231;28;20036;-68
2023/01/29 00:37:47;;;;;;;1.38;1.27;;;;;;;1.26;70.31;100402.25;5093360;28;20101;-69
2023/01/29 00:40:18;;;;;;;0.93;0.93;;;;;;;1.26;70.16;100392.22;5093419;28;20047;-67
2023/01/29 00:45:26;;;;;;;2.87;1.10;;;;;;;1.29;69.37;100384.81;5093309;28;20052;-67
2023/01/29 00:47:55;;;;;;;3.35;2.67;;;;;;;1.29;69.52;100391.50;5092354;28;20130;-67
2023/01/29 00:50:25;;;;;;;0.60;0.60;;;;;;;1.27;69.87;100381.34;5093284;28;20131;-68
2023/01/29 00:52:54;;;;;;;0.50;0.50;;;;;;;1.35;69.33;100384.22;5093622;28;20040;-68
2023/01/29 00:55:23;;;;;;;1.43;1.37;;;;;;;1.29;69.57;100378.91;5093172;28;20128;-68
2023/01/29 00:57:52;;;;;;;0.70;0.70;;;;;;;1.30;69.32;100376.47;5091984;28;20276;-67
2023/01/29 01:00:21;;;;;;;1.80;0.90;;;;;;;1.31;69.57;100384.88;5095982;28;20486;-68
2023/01/29 01:05:30;;;;;;;0.40;0.40;;;;;;;1.33;69.74;100390.84;5097232;28;20517;-68
2023/01/29 01:07:59;;;;;;;4.13;1.42;;;;;;;1.35;69.23;100385.09;5129863;27;20052;-68
2023/01/29 01:10:29;;;;;;;0.73;0.73;;;;;;;1.29;69.46;100374.75;5096904;28;20498;-67
2023/01/29 01:13:01;;;;;;;0.70;0.70;;;;;;;1.33;70.04;100380.78;5097155;28;20276;-68
2023/01/29 01:15:34;;;;;;;0.90;0.90;;;;;;;1.34;69.84;100387.53;5095571;28;20048;-67
2023/01/29 01:18:04;;;;;;;1.25;1.15;;;;;;;1.35;69.54;100386.75;5096740;28;20055;-67
2023/01/29 01:20:35;;;;;;;;;;;;;;;1.37;69.71;100392.69;5096144;28;20119;-67
2023/01/29 01:23:04;;;;;;;0.60;0.60;;;;;;;1.37;69.42;100391.84;5097233;28;20003;-67
2023/01/29 01:25:33;;;;;;;0.57;0.57;;;;;;;1.37;69.55;100396.88;5096849;28;20028;-67
2023/01/29 01:28:02;;;;;;;2.00;1.80;;;;;;;1.40;70.24;100391.97;5095633;28;20040;-67
2023/01/29 01:30:31;;;;;;;1.73;1.30;;;;;;;1.38;70.18;100404.50;5095293;28;20044;-67
2023/01/29 01:33:01;;;;;;;1.98;1.88;;;;;;;1.40;69.77;100387.81;5095867;28;20432;-67
2023/01/29 01:35:31;;;;;;;1.88;1.77;;;;;;;1.43;69.84;100382.06;5096375;28;20058;-67
2023/01/29 01:38:01;;;;;;;0.50;0.50;;;;;;;1.43;69.78;100387.09;5096898;28;20040;-67
2023/01/29 01:40:30;;;;;;;1.00;1.00;;;;;;;1.44;69.60;100386.31;5096232;28;20123;-67
2023/01/29 01:43:00;;;;;;;1.70;1.60;;;;;;;1.41;70.11;100383.66;5095047;28;20036;-68
2023/01/29 01:45:31;;;;;;;1.48;1.38;;;;;;;1.37;70.26;100392.69;5096188;28;20055;-67
2023/01/29 01:48:05;;;;;;;3.50;2.53;;;;;;;1.37;70.39;100397.72;5096125;28;20091;-68
2023/01/29 01:50:38;;;;;;;0.93;0.93;;;;;;;1.37;71.01;100404.44;5095047;28;20044;-67
2023/01/29 01:53:11;;;;;;;1.17;1.17;;;;;;;1.32;71.14;100395.00;5096201;28;20097;-67
2023/01/29 01:55:46;;;;;;;0.95;0.95;;;;;;;1.28;71.52;100403.19;5096056;28;20135;-67
2023/01/29 01:58:21;;;;;;;2.10;1.90;;;;;;;1.30;71.81;100409.16;5094748;28;20048;-67
2023/01/29 02:00:51;;;;;;;0.50;0.50;;;;;;;1.27;71.66;100408.16;5094559;28;20076;-68
2023/01/29 02:11:28;;;;;;;0.40;0.40;;;;;;;1.13;71.98;100402.44;5095585;28;20474;-67
2023/01/29 02:13:57;;;;;;;2.92;2.72;;;;;;;1.18;72.04;100411.09;5095962;28;20131;-67
2023/01/29 02:16:26;;;;;;;0.60;0.60;;;;;;;1.16;72.46;100411.78;5095889;28;20494;-67
2023/01/29 02:18:56;;;;;;;1.17;1.13;;;;;;;1.16;71.79;100412.66;5095498;28;20097;-68
2023/01/29 02:21:51;;;;;;;0.65;0.65;;;;;;;0.97;72.15;100382.41;5095493;28;20102;-67
2023/01/29 02:24:44;;;;;;;3.10;2.83;;;;;;;1.14;72.42;100409.22;5085391;28;20087;-67
2023/01/29 02:27:16;;;;;;;2.60;1.95;;;;;;;1.11;72.21;100419.13;5095652;28;20509;-67
2023/01/29 02:30:00;;;;;;;1.00;1.00;;;;;;;0.94;72.64;100394.81;5094520;28;20040;-67
2023/01/29 02:32:35;;;;;;;1.25;1.15;;;;;;;1.08;72.50;100413.09;5095650;28;20525;-67
2023/01/29 02:38:02;;;;;;;1.48;1.38;;;;;;;1.09;73.05;100420.69;5094328;28;20489;-67
2023/01/29 02:40:36;;;;;;;1.30;1.23;;;;;;;0.90;72.42;100387.06;5093975;28;20043;-67
2023/01/29 02:43:16;;;;;;;2.55;2.17;;;;;;;1.05;72.61;100423.88;5095115;28;20048;-68
2023/01/29 02:45:52;;;;;;;0.50;0.50;;;;;;;1.03;72.49;100427.91;5095128;28;20044;-68
2023/01/29 02:48:24;;;;;;;2.53;1.70;;;;;;;0.98;72.50;100431.88;5094886;28;20036;-68
2023/01/29 02:50:58;;;;;;;0.50;0.50;;;;;;;0.96;73.07;100430.94;5093779;28;20071;-66
2023/01/29 02:53:36;;;;;;;1.73;0.85;;;;;;;0.89;73.46;100416.34;5094891;28;20036;-67
2023/01/29 02:56:12;;;;;;;0.50;0.50;;;;;;;0.94;72.68;100435.03;5093714;28;20122;-67
2023/01/29 02:58:45;;;;;;;1.65;1.50;;;;;;;0.92;72.92;100421.53;5093583;28;20135;-67
2023/01/29 03:01:21;;;;;;;0.85;0.85;;;;;;;0.95;72.67;100430.88;5093222;28;20052;-67
2023/01/29 03:03:56;;;;;;;0.60;0.60;;;;;;;0.96;72.79;100423.38;5093860;28;20113;-67
2023/01/29 03:06:30;;;;;;;1.48;1.00;;;;;;;0.91;72.32;100424.81;5094984;28;20131;-67
2023/01/29 03:09:02;;;;;;;1.05;0.98;;;;;;;0.82;72.47;100419.34;5093355;28;20074;-67
2023/01/29 03:11:38;;;;;;;0.90;0.90;;;;;;;0.92;72.51;100435.72;5094890;28;20048;-67
2023/01/29 03:14:13;;;;;;;2.72;2.53;;;;;;;0.89;72.18;100443.97;5110583;28;20068;-67
2023/01/29 03:16:50;;;;;;;0.50;0.50;;;;;;;0.86;72.35;100431.28;5093234;28;20071;-66
2023/01/29 03:19:23;;;;;;;0.52;0.52;;;;;;;0.86;72.47;100443.84;5094294;28;20044;-67
2023/01/29 03:21:59;;;;;;;0.60;0.60;;;;;;;0.70;72.48;100421.25;5092420;28;20040;-67
2023/01/29 03:33:10;;;;;;;5.47;2.28;;;;;;;0.75;72.53;100437.41;5078223;28;20135;-67
2023/01/29 03:35:47;;;;;;;1.40;1.15;;;;;;;0.70;72.01;100438.81;5094151;28;20501;-67
2023/01/29 03:38:16;;;;;;;2.85;1.48;;;;;;;0.68;71.95;100435.38;5094144;28;20123;-68
2023/01/29 03:40:52;;;;;;;2.20;2.03;;;;;;;0.69;72.14;100437.13;5094137;28;20040;-67
2023/01/29 03:43:32;;;;;;;2.17;2.08;;;;;;;0.70;71.96;100438.81;5094119;28;20105;-67
2023/01/29 03:46:08;;;;;;;1.90;1.80;;;;;;;0.71;71.73;100425.50;5094331;28;20055;-68
2023/01/29 03:48:47;;;;;;;1.92;1.40;;;;;;;0.63;72.11;100415.06;5093087;28;20398;-67
2023/01/29 03:51:25;;;;;;;0.35;0.35;;;;;;;0.67;71.97;100423.63;5092708;28;20052;-67
2023/01/29 03:54:01;;;;;;;0.50;0.50;;;;;;;0.63;71.53;100424.22;5092718;28;20059;-67
2023/01/29 03:56:39;;;;;;;1.27;1.23;;;;;;;0.63;71.67;100416.69;5093933;28;20071;-67
2023/01/29 03:59:23;;;;;;;0.50;0.50;;;;;;;0.62;71.88;100415.00;5092687;28;20048;-67
2023/01/29 04:02:26;;;;;;;;;;;;;;;0.62;71.20;100410.81;5093271;28;20052;-67
2023/01/29 04:05:06;;;;;;;0.65;0.65;;;;;;;0.59;71.47;100414.81;5093772;28;20011;-67
2023/01/29 04:07:45;;;;;;;0.60;0.60;;;;;;;0.60;71.48;100412.38;5126756;27;20494;-67
2023/01/29 04:10:19;;;;;;;1.60;1.50;;;;;;;0.60;71.73;100414.06;5092506;28;20043;-66
2023/01/29 04:12:55;;;;;;;0.80;0.80;;;;;;;0.57;71.73;100416.41;5092451;28;20048;-67
2023/01/29 04:15:28;;;;;;;2.08;1.58;;;;;;;0.63;71.22;100429.25;5092428;28;20051;-67
2023/01/29 04:17:58;;;;;;;0.88;0.88;;;;;;;0.65;70.99;100431.06;5109413;28;20090;-67
2023/01/29 04:20:38;;;;;;;0.70;0.70;;;;;;;0.63;71.15;100426.75;5093499;28;20048;-67
2023/01/29 04:23:19;;;;;;;2.22;2.05;;;;;;;0.44;71.33;100393.97;5092379;28;20048;-69
2023/01/29 04:26:05;;;;;;;0.63;0.63;;;;;;;0.66;71.25;100426.91;5093862;28;20502;-67
2023/01/29 04:28:52;;;;;;;1.02;1.02;;;;;;;0.62;71.28;100420.84;5109259;28;20044;-67
2023/01/29 04:31:26;;;;;;;0.70;0.70;;;;;;;0.57;71.08;100416.41;5092572;28;20044;-67
2023/01/29 04:34:09;;;;;;;0.98;0.98;;;;;;;0.61;70.83;100420.78;5094929;28;20082;-67
2023/01/29 04:36:51;;;;;;;1.65;1.55;;;;;;;0.66;71.06;100426.91;5096408;28;20081;-67
2023/01/29 04:39:25;;;;;;;1.45;1.23;;;;;;;0.62;71.21;100427.53;5097526;28;20075;-68
2023/01/29 04:42:04;;;;;;;3.63;1.95;;;;;;;0.61;71.05;100431.69;5097352;28;20040;-67
2023/01/29 04:44:40;;;;;;;5.63;2.10;;;;;;;0.43;70.58;100417.34;5097445;28;20052;-67
2023/01/29 04:47:21;;;;;;;1.05;1.05;;;;;;;0.61;71.09;100450.91;5097709;28;20048;-67
2023/01/29 04:49:59;;;;;;;0.85;0.85;;;;;;;0.61;70.61;100455.94;5097374;28;20055;-67
2023/01/29 04:52:38;;;;;;;0.60;0.60;;;;;;;0.57;70.50;100461.59;5097284;28;20157;-68
2023/01/29 04:55:15;;;;;;;0.75;0.75;;;;;;;0.54;71.05;100467.34;5097294;28;20062;-67
2023/01/29 04:57:51;;;;;;;0.52;0.52;;;;;;;0.52;70.65;100468.03;5095979;28;20478;-67
2023/01/29 05:00:27;;;;;;;0.57;0.57;;;;;;;0.51;70.40;100466.28;5097029;28;20055;-69
2023/01/29 05:02:57;;;;;;;0.98;0.95;;;;;;;0.49;70.67;100472.91;5097047;28;20044;-67
2023/01/29 05:05:26;;;;;;;;;;;;;;;0.47;70.45;100476.97;5097749;28;20071;-67
2023/01/29 05:07:59;;;;;;;0.50;0.50;;;;;;;0.46;70.14;100477.75;5096935;28;19920;-67
2023/01/29 05:10:29;;;;;;;0.60;0.60;;;;;;;0.43;69.97;100468.41;5097333;28;20448;-67
2023/01/29 05:13:03;;;;;;;0.55;0.55;;;;;;;0.40;69.45;100467.41;5097168;28;20550;-68
2023/01/29 05:15:37;;;;;;;1.85;1.38;;;;;;;0.41;69.96;100464.09;5096840;28;20076;-67
2023/01/29 05:18:07;;;;;;;0.80;0.80;;;;;;;0.44;69.73;100466.75;5097082;28;20074;-67
2023/01/29 05:20:39;;;;;;;0.95;0.95;;;;;;;0.41;69.17;100474.13;5096693;28;20486;-67
2023/01/29 05:23:15;;;;;;;0.40;0.40;;;;;;;0.38;69.24;100474.00;5096700;28;20055;-67
2023/01/29 05:25:45;;;;;;;0.40;0.40;;;;;;;0.38;68.99;100471.50;5096882;28;20074;-67
2023/01/29 05:28:16;;;;;;;0.52;0.52;;;;;;;0.31;69.40;100466.94;5096917;28;20465;-67
2023/01/29 05:30:47;;;;;;;0.60;0.60;;;;;;;0.29;69.10;100463.47;5096561;28;20048;-67
2023/01/29 05:33:20;;;;;;;1.85;1.40;;;;;;;0.29;69.02;100466.84;5096844;28;20440;-67
2023/01/29 05:35:50;;;;;;;0.40;0.40;;;;;;;0.29;68.87;100466.00;5096471;28;20044;-67
2023/01/29 05:38:20;;;;;;;1.02;1.02;;;;;;;0.27;69.09;100470.03;5096395;28;20066;-67
2023/01/29 05:40:49;;;;;;;2.55;1.73;;;;;;;0.31;68.68;100471.94;5096605;28;20422;-67
2023/01/29 05:43:20;;;;;;;0.50;0.50;;;;;;;0.32;68.92;100468.63;5096659;28;20434;-67
2023/01/29 05:45:53;;;;;;;0.50;0.50;;;;;;;0.33;68.38;100480.41;5095654;28;20401;-67
2023/01/29 05:48:23;;;;;;;2.58;2.38;;;;;;;0.23;68.71;100464.00;5096218;28;20056;-67
2023/01/29 05:50:52;;;;;;;0.60;0.60;;;;;;;0.29;68.23;100468.50;5096158;28;20036;-67
2023/01/29 05:53:22;;;;;;;0.43;0.43;;;;;;;0.30;68.87;100470.22;5096127;28;20048;-67
2023/01/29 05:55:51;;;;;;;0.60;0.60;;;;;;;0.30;68.69;100461.03;5096301;28;20063;-67
2023/01/29 05:58:20;;;;;;;0.73;0.73;;;;;;;0.20;68.21;100432.88;5095990;28;20066;-67
2023/01/29 06:00:49;;;;;;;0.82;0.82;;;;;;;0.26;68.20;100453.28;5095532;28;20048;-67
2023/01/29 06:03:18;;;;;;;0.63;0.63;;;;;;;0.19;67.96;100451.22;5095947;28;20070;-67
2023/01/29 06:05:47;;;;;;;0.30;0.30;;;;;;;0.19;68.35;100461.28;5095821;28;20123;-67
2023/01/29 06:08:15;;;;;;;1.17;1.08;;;;;;;0.15;67.87;100454.34;5095848;28;20044;-66
2023/01/29 06:10:46;;;;;;;0.60;0.60;;;;;;;0.15;67.94;100470.25;5095735;28;20048;-68
2023/01/29 06:13:14;;;;;;;1.38;0.95;;;;;;;0.17;67.34;100457.81;5095786;28;20076;-66
2023/01/29 06:15:43;;;;;;;0.43;0.43;;;;;;;0.17;67.38;100466.19;5095583;28;20559;-66
2023/01/29 06:18:12;;;;;;;0.73;0.73;;;;;;;0.18;67.42;100454.50;5095642;28;20032;-66
2023/01/29 06:20:41;;;;;;;0.47;0.47;;;;;;;0.18;66.92;100454.50;5095470;28;20285;-66
2023/01/29 06:23:10;;;;;;;1.38;1.27;;;;;;;0.14;67.30;100450.13;5095549;28;20036;-66
2023/01/29 06:25:38;;;;;;;1.60;1.50;;;;;;;0.10;67.19;100465.81;5095423;28;20074;-66
2023/01/29 06:28:09;;;;;;;0.90;0.90;;;;;;;0.11;67.29;100473.41;5095561;28;20334;-66
2023/01/29 06:30:37;;;;;;;1.00;0.90;;;;;;;0.12;67.22;100474.28;5095457;28;20835;-66
2023/01/29 06:33:06;;;;;;;0.60;0.60;;;;;;;0.08;67.03;100469.84;5095257;28;20497;-66
2023/01/29 06:35:35;;;;;;;0.77;0.77;;;;;;;0.09;66.69;100479.13;5095597;28;20036;-66
2023/01/29 06:38:04;;;;;;;1.02;0.95;;;;;;;0.06;66.92;100486.47;5093972;28;20276;-67
2023/01/29 06:40:32;;;;;;;1.00;0.93;;;;;;;0.04;66.35;100495.56;5095163;28;20047;-66
2023/01/29 06:43:01;;;;;;;1.20;1.20;;;;;;;-0.02;66.34;100491.94;5095365;28;20123;-66
2023/01/29 06:45:31;;;;;;;0.63;0.60;;;;;;;0.00;66.17;100490.38;5095053;28;20123;-66
2023/01/29 06:48:00;;;;;;;0.75;0.75;;;;;;;-0.03;65.95;100500.28;5095271;28;20068;-67
2023/01/29 06:50:29;;;;;;;0.60;0.60;;;;;;;-0.09;65.70;100497.41;5095239;28;20478;-66
2023/01/29 06:52:59;;;;;;;1.05;1.05;;;;;;;-0.08;65.52;100511.69;5095224;28;20451;-66
2023/01/29 06:55:28;;;;;;;0.93;0.93;;;;;;;-0.10;65.86;100510.72;5094747;28;20131;-66
2023/01/29 06:57:57;;;;;;;0.50;0.50;;;;;;;-0.10;65.59;100510.72;5095184;28;20063;-66
2023/01/29 07:00:26;;;;;;;0.70;0.70;;;;;;;-0.04;65.42;100523.63;5094555;28;20293;-66
2023/01/29 07:02:58;;;;;;;0.70;0.70;;;;;;;-0.04;65.57;100513.59;5094779;28;20563;-66
2023/01/29 07:05:26;;;;;;;0.60;0.60;;;;;;;-0.01;65.62;100518.78;5094867;28;20051;-66
2023/01/29 07:07:55;;;;;;;0.98;0.98;;;;;;;0.01;65.65;100511.31;5094687;28;20116;-66
2023/01/29 07:10:24;;;;;;;0.95;0.80;;;;;;;-0.01;65.36;100512.91;5094859;28;20436;-66
2023/01/29 07:12:53;;;;;;;0.57;0.57;;;;;;;-0.15;65.15;100497.09;5094925;28;20130;-66
2023/01/29 12:00:33;;;;;;;1.60;1.50;;;;;;;0.57;61.82;100421.44;5132015;27;20379;-65
2023/01/29 12:03:11;;;;;;;1.20;1.13;;;;;;;0.76;61.59;100413.16;5132229;27;20039;-66
2023/01/29 12:05:52;;;;;;;0.45;0.45;;;;;;;0.88;61.60;100402.06;5132122;27;20405;-65
2023/01/29 12:08:24;;;;;;;1.77;1.67;;;;;;;0.96;61.31;100393.22;5131851;27;20050;-66
2023/01/29 12:11:08;;;;;;;1.40;1.25;;;;;;;1.01;61.30;100389.28;5131148;28;20396;-66
2023/01/29 12:13:37;;;;;;;0.82;0.70;;;;;;;1.07;60.69;100382.06;5132054;27;20397;-66
2023/01/29 12:16:17;;;;;;;1.48;1.38;;;;;;;1.43;59.77;100372.00;5131537;27;20092;-66
2023/01/29 12:18:53;;;;;;;0.32;0.32;;;;;;;1.55;59.98;100372.56;5131591;27;20040;-66
2023/01/29 12:21:29;;;;;;;0.55;0.55;;;;;;;1.55;59.59;100358.34;5131536;28;20127;-66
2023/01/29 12:24:03;;;;;;;1.65;1.55;;;;;;;1.72;58.84;100352.44;5131456;27;20040;-66
2023/01/29 12:26:35;;;;;;;0.50;0.50;;;;;;;1.84;58.16;100352.13;5129838;28;20096;-65
2023/01/29 12:29:22;;;;;;;1.48;1.38;;;;;;;1.90;58.46;100347.34;5131402;27;20047;-66
2023/01/29 12:32:03;;;;;;;1.10;0.85;;;;;;;1.65;57.64;100337.00;5131684;28;20539;-66
2023/01/29 12:34:44;;;;;;;1.27;1.00;;;;;;;1.76;58.08;100330.78;5131328;27;20054;-66
2023/01/29 12:37:22;;;;;;;0.60;0.60;;;;;;;2.05;57.82;100335.44;5131486;28;20131;-66
2023/01/29 12:39:52;;;;;;;1.00;0.95;;;;;;;2.37;57.26;100325.09;5131210;27;20039;-66
2023/01/29 12:42:22;;;;;;;0.40;0.40;;;;;;;2.67;57.00;100323.81;5131095;27;20126;-66
2023/01/29 12:44:55;;;;;;;0.50;0.50;;;;;;;2.84;55.86;100321.13;5131533;27;20101;-66
2023/01/29 12:47:31;;;;;;;1.20;0.98;;;;;;;2.88;55.83;100317.94;5131031;27;20048;-66
2023/01/29 12:50:05;;;;;;;2.08;1.95;;;;;;;2.80;55.32;100314.25;5131298;28;20397;-66
2023/01/29 12:52:39;;;;;;;0.95;0.93;;;;;;;2.78;54.58;100324.28;5131293;28;20134;-66
2023/01/29 12:55:16;;;;;;;0.52;0.52;;;;;;;2.98;54.71;100317.47;5130866;28;20043;-66
2023/01/29 12:57:48;;;;;;;0.50;0.50;;;;;;;2.86;54.44;100317.84;5131235;27;20559;-66
2023/01/29 13:00:22;;;;;;;0.93;0.93;;;;;;;2.68;54.91;100325.56;5130627;28;20070;-66
2023/01/29 13:02:59;;;;;;;1.02;0.88;;;;;;;2.86;54.57;100315.34;5130851;27;20054;-66
2023/01/29 13:05:34;;;;;;;0.73;0.73;;;;;;;3.17;54.02;100324.97;5131108;27;20477;-66
2023/01/29 13:08:09;;;;;;;0.30;0.30;;;;;;;3.04;54.23;100325.31;5130665;27;20044;-66
2023/01/29 13:10:43;;;;;;;1.60;1.50;;;;;;;2.96;53.90;100329.16;5124223;27;20456;-66
2023/01/29 13:13:19;;;;;;;2.08;1.20;;;;;;;2.88;53.70;100325.50;5116866;28;20097;-66
2023/01/29 13:15:49;;;;;;;0.77;0.77;;;;;;;2.63;53.49;100316.94;5117224;28;20044;-66
2023/01/29 13:18:44;;;;;;;0.35;0.35;;;;;;;2.47;54.32;100312.06;5117111;28;20039;-66
2023/01/29 13:21:17;;;;;;;0.50;0.50;;;;;;;2.44;53.83;100322.03;5113774;28;20560;-66
2023/01/29 13:23:49;;;;;;;1.10;1.08;;;;;;;2.18;54.33;100320.06;5117315;28;20050;-66
2023/01/29 13:26:19;;;;;;;0.63;0.63;;;;;;;2.41;54.74;100314.34;5116611;28;20047;-66
2023/01/29 13:28:49;;;;;;;0.93;0.88;;;;;;;2.40;53.95;100310.09;5116883;28;20444;-66
2023/01/29 13:31:27;;;;;;;0.60;0.60;;;;;;;2.68;55.11;100309.56;5116526;28;20040;-66
2023/01/29 13:34:06;;;;;;;0.30;0.30;;;;;;;2.75;54.34;100310.66;5116540;28;20071;-66
2023/01/29 13:36:37;;;;;;;3.67;1.07;;;;;;;2.58;53.54;100317.56;5116837;28;20047;-66
2023/01/29 13:39:16;;;;;;;0.75;0.75;;;;;;;2.12;53.76;100314.75;5116663;28;20807;-66
2023/01/29 13:41:45;;;;;;;0.50;0.50;;;;;;;2.06;54.46;100312.00;5116754;28;20043;-66
2023/01/29 13:44:24;;;;;;;0.75;0.75;;;;;;;1.99;54.87;100312.53;5116547;28;20593;-66
2023/01/29 13:46:57;;;;;;;0.80;0.80;;;;;;;2.10;54.67;100311.31;5116532;28;20543;-66
2023/01/29 13:49:37;;;;;;;1.05;0.98;;;;;;;2.11;54.72;100313.06;5116237;28;20043;-66
2023/01/29 13:52:16;;;;;;;;;;;;;;;2.05;55.76;100307.75;5116537;28;20047;-66
2023/01/29 13:54:54;;;;;;;0.40;0.40;;;;;;;1.98;55.77;100315.81;5116195;28;19919;-66
2023/01/29 13:57:48;;;;;;;1.10;1.00;;;;;;;1.98;55.79;100320.88;5115963;28;20066;-66
2023/01/29 14:00:38;;;;;;;1.17;1.08;;;;;;;1.74;55.69;100319.78;5105900;28;20116;-66
2023/01/29 14:03:29;;;;;;;1.23;1.20;;;;;;;1.73;56.44;100320.56;5116233;28;20478;-66
2023/01/29 14:06:45;;;;;;;1.70;1.10;;;;;;;1.75;57.01;100324.03;5115717;28;20048;-66
2023/01/29 14:09:33;;;;;;;1.45;1.35;;;;;;;1.81;57.49;100316.75;5116060;28;20116;-66
2023/01/29 14:12:03;;;;;;;0.50;0.50;;;;;;;1.76;57.74;100311.50;5115805;28;20059;-66
2023/01/29 14:14:59;;;;;;;0.40;0.40;;;;;;;1.78;57.78;100322.50;5115676;28;20040;-66
2023/01/29 14:17:29;;;;;;;0.98;0.98;;;;;;;1.74;58.45;100314.75;5116012;27;20044;-66
2023/01/29 14:20:03;;;;;;;0.88;0.80;;;;;;;1.71;58.69;100315.47;5115773;28;20054;-66
2023/01/29 14:22:33;;;;;;;0.70;0.70;;;;;;;1.64;58.17;100310.97;5114935;28;20505;-66
2023/01/29 14:25:06;;;;;;;1.58;1.45;;;;;;;1.62;58.96;100314.22;5115767;28;20044;-66
2023/01/29 14:27:37;;;;;;;0.60;0.60;;;;;;;1.60;59.21;100313.28;5115453;28;20054;-66
2023/01/29 14:30:09;;;;;;;1.25;1.17;;;;;;;1.56;58.90;100308.91;5115441;28;20040;-66
2023/01/29 14:32:40;;;;;;;1.02;1.02;;;;;;;1.47;58.71;100311.00;5115784;28;20050;-66
2023/01/29 14:35:19;;;;;;;1.33;1.23;;;;;;;1.29;59.37;100314.44;5115347;28;20105;-66
2023/01/29 14:37:53;;;;;;;0.47;0.47;;;;;;;1.22;59.86;100312.38;5115277;28;20056;-66
2023/01/29 14:40:25;;;;;;;0.60;0.60;;;;;;;1.17;60.08;100308.84;5115490;28;20394;-66
2023/01/29 14:43:00;;;;;;;0.77;0.77;;;;;;;1.08;60.07;100317.59;5115477;28;20039;-66
2023/01/29 14:45:31;;;;;;;1.02;1.02;;;;;;;0.97;59.96;100324.63;5115676;28;20366;-66
2023/01/29 14:48:35;;;;;;;0.80;0.80;;;;;;;0.82;60.64;100323.88;5115118;28;20591;-66
2023/01/29 14:51:10;;;;;;;0.73;0.70;;;;;;;0.79;61.10;100318.72;5114963;28;20048;-66
2023/01/29 14:53:58;;;;;;;1.65;1.55;;;;;;;0.72;61.04;100321.69;5114956;28;20066;-66
2023/01/29 14:56:34;;;;;;;1.40;1.25;;;;;;;0.63;61.38;100331.31;5114912;28;20083;-66
2023/01/29 14:59:13;;;;;;;2.17;1.95;;;;;;;0.58;62.01;100333.59;5114840;28;20058;-66
2023/01/29 15:01:48;;;;;;;1.45;1.35;;;;;;;0.55;62.28;100330.09;5114832;28;20117;-66
2023/01/29 15:04:22;;;;;;;0.57;0.57;;;;;;;0.53;61.92;100319.09;5114988;28;20040;-66
2023/01/29 15:06:59;;;;;;;1.05;0.98;;;;;;;0.50;62.52;100323.97;5115103;28;20138;-66
2023/01/29 15:09:38;;;;;;;0.63;0.63;;;;;;;0.48;62.41;100330.59;5114619;28;20073;-66
2023/01/29 15:12:23;;;;;;;0.60;0.60;;;;;;;0.41;62.79;100326.88;5114533;28;20130;-66
2023/01/29 15:15:03;;;;;;;0.70;0.70;;;;;;;0.39;62.85;100325.09;5114630;28;20059;-66
2023/01/29 15:17:40;;;;;;;1.17;1.13;;;;;;;0.35;63.17;100334.13;5114488;28;20071;-66
2023/01/29 15:20:26;;;;;;;3.28;2.97;;;;;;;0.30;62.84;100329.66;5114443;28;20039;-65
2023/01/29 15:22:55;;;;;;;2.55;2.35;;;;;;;0.18;63.01;100337.44;5114257;28;20094;-66
2023/01/29 15:25:29;;;;;;;1.50;1.40;;;;;;;0.17;63.73;100334.84;5114421;28;20058;-66
2023/01/29 15:27:59;;;;;;;1.17;1.05;;;;;;;0.20;63.73;100333.34;5114308;28;20057;-66
2023/01/29 15:30:33;;;;;;;0.70;0.70;;;;;;;0.17;64.01;100332.34;5114302;28;20043;-66
2023/01/29 15:33:03;;;;;;;0.47;0.47;;;;;;;0.10;64.12;100332.81;5114079;28;20043;-66
2023/01/29 15:35:37;;;;;;;5.43;2.58;;;;;;;0.05;64.17;100332.56;5114206;28;20118;-66
2023/01/29 15:38:14;;;;;;;0.95;0.95;;;;;;;0.02;64.25;100326.53;5114584;28;20067;-66
2023/01/29 15:40:51;;;;;;;3.00;1.17;;;;;;;0.02;64.38;100326.53;5114385;28;20050;-66
2023/01/29 15:43:22;;;;;;;1.73;1.63;;;;;;;-0.01;64.40;100338.16;5114144;28;20100;-66
2023/01/29 15:45:53;;;;;;;1.00;1.00;;;;;;;0.02;64.23;100319.00;5114766;28;20078;-66
2023/01/29 15:48:30;;;;;;;0.60;0.60;;;;;;;0.03;64.31;100323.22;5114048;28;20043;-66
2023/01/29 15:51:03;;;;;;;1.45;1.30;;;;;;;-0.02;64.41;100323.88;5113755;28;20046;-66
2023/01/29 15:53:38;;;;;;;1.55;1.45;;;;;;;0.03;64.89;100325.75;5113334;28;20553;-66
2023/01/29 15:56:12;;;;;;;0.55;0.55;;;;;;;-0.06;64.67;100319.50;5114063;28;20580;-66
2023/01/29 15:58:42;;;;;;;1.30;1.27;;;;;;;-0.11;65.15;100320.91;5114220;28;20051;-66
2023/01/29 16:01:11;;;;;;;1.52;1.42;;;;;;;-0.14;65.14;100320.72;5114165;28;20458;-66
2023/01/29 16:03:41;;;;;;;1.57;1.47;;;;;;;-0.15;65.52;100319.03;5114168;28;20420;-66
2023/01/29 16:06:11;;;;;;;1.02;1.02;;;;;;;-0.19;65.37;100322.13;5114062;28;20469;-65
2023/01/29 16:08:44;;;;;;;1.13;1.08;;;;;;;-0.25;65.46;100315.94;5113880;28;20055;-65
2023/01/29 16:11:17;;;;;;;1.48;1.38;;;;;;;-0.26;65.79;100329.25;5114139;28;20043;-66
2023/01/29 16:13:50;;;;;;;2.20;1.38;;;;;;;-0.25;65.83;100325.97;5114052;28;20481;-66
2023/01/29 16:16:24;;;;;;;1.85;1.25;;;;;;;-0.27;65.59;100318.38;5113849;28;20059;-65
2023/01/29 16:18:54;;;;;;;0.40;0.40;;;;;;;-0.29;65.71;100314.91;5113697;28;20036;-66
2023/01/29 16:21:32;;;;;;;1.73;1.58;;;;;;;-0.35;65.70;100314.59;5114148;28;20043;-65
2023/01/29 16:24:08;;;;;;;3.33;1.65;;;;;;;-0.29;65.77;100324.94;5113749;28;20036;-65
2023/01/29 16:26:43;;;;;;;1.40;0.85;;;;;;;-0.32;65.67;100318.91;5113830;28;20509;-66
2023/01/29 16:29:15;;;;;;;0.98;0.98;;;;;;;-0.35;65.88;100319.63;5112805;28;20134;-66
2023/01/29 16:31:45;;;;;;;4.90;2.70;;;;;;;-0.36;65.85;100320.38;5113996;28;20048;-65
2023/01/29 16:34:19;;;;;;;1.30;1.20;;;;;;;-0.41;65.83;100321.81;5113661;28;20048;-65
2023/01/29 16:36:48;;;;;;;2.22;1.90;;;;;;;-0.42;66.07;100312.56;5113831;28;20392;-65
2023/01/29 16:39:21;;;;;;;2.17;1.75;;;;;;;-0.51;66.03;100316.22;5113559;28;20044;-66
2023/01/29 16:42:20;;;;;;;3.92;2.78;;;;;;;-0.48;66.33;100317.22;5113266;28;20092;-65
2023/01/29 16:45:04;;;;;;;1.33;1.25;;;;;;;-0.62;66.35;100313.13;5111758;28;20096;-65
2023/01/29 16:47:35;;;;;;;1.65;1.55;;;;;;;-0.58;66.49;100322.56;5116316;28;20039;-65
2023/01/29 16:50:27;;;;;;;0.50;0.50;;;;;;;-0.64;66.92;100314.72;5116359;28;20043;-66
2023/01/29 16:52:58;;;;;;;1.60;1.50;;;;;;;-0.64;66.70;100309.69;5117324;28;20073;-65
2023/01/29 16:55:33;;;;;;;0.50;0.50;;;;;;;-0.65;66.84;100323.03;5117606;28;20048;-65
2023/01/29 16:58:13;;;;;;;1.35;1.25;;;;;;;-0.64;66.78;100319.72;5117073;28;20052;-65
2023/01/29 17:00:46;;;;;;;1.77;1.67;;;;;;;-0.69;66.79;100316.97;5117004;28;20043;-65
2023/01/29 17:03:18;;;;;;;3.40;3.03;;;;;;;-0.72;67.00;100313.44;5117508;28;20079;-66
2023/01/29 17:05:49;;;;;;;0.75;0.75;;;;;;;-0.72;67.00;100315.97;5116386;28;20064;-65
2023/01/29 17:08:23;;;;;;;1.27;1.17;;;;;;;-0.77;67.24;100319.84;5117325;28;20386;-66
2023/01/29 17:10:53;;;;;;;1.63;1.52;;;;;;;-0.74;67.18;100317.50;5116998;28;20122;-65
2023/01/29 17:13:28;;;;;;;0.88;0.73;;;;;;;-0.71;67.08;100321.03;5116876;28;20105;-64
2023/01/29 17:16:02;;;;;;;1.23;1.13;;;;;;;-0.66;67.02;100321.28;5117226;28;20486;-65